KRHV/RHV METAR and TAF weather

Enter ICAO airport designator
Station Type Date Time Source
KRHV METAR 2022/06/28 23:47 UTC NOAA

KRHV 282347Z 32011KT 10SM SKC 28/08 A3001


Station Type Date Time Source
KRHV Decoded METAR 2022/06/28 23:47 UTC NOAA

San Jose / Reid / Hillv, CA, United States (KRHV) 37-20N 121-49W
Jun 28, 2022 - 07:47 PM EDT / 2022.06.28 2347 UTC
Wind: from the NW (320 degrees) at 13 MPH (11 KT):0
Visibility: 10 mile(s):0
Sky conditions: clear
Temperature: 82 F (28 C)
Dew Point: 46 F (8 C)
Relative Humidity: 28%
Pressure (altimeter): 30.01 in. Hg (1016 hPa)
ob: KRHV 282347Z 32011KT 10SM SKC 28/08 A3001
cycle: 0

Station Type Date Time Source
KRHV TAF UTC NOAA

Error!

Example: see airport list